sensor_id;sensor_type;location;lat;lon;timestamp;P1;durP1;ratioP1;P2;durP2;ratioP2
35562;SDS011;21665;40.108;18.302;2024-03-23T00:52:39;91.97;;;26.42;;
35562;SDS011;21665;40.108;18.302;2024-03-23T00:55:05;80.13;;;28.00;;
35562;SDS011;21665;40.108;18.302;2024-03-23T00:57:33;81.72;;;26.58;;
35562;SDS011;21665;40.108;18.302;2024-03-23T00:59:59;82.25;;;26.10;;
35562;SDS011;21665;40.108;18.302;2024-03-23T01:02:25;81.05;;;27.40;;
35562;SDS011;21665;40.108;18.302;2024-03-23T01:04:52;83.82;;;28.25;;
35562;SDS011;21665;40.108;18.302;2024-03-23T01:07:18;76.85;;;27.85;;
35562;SDS011;21665;40.108;18.302;2024-03-23T01:09:44;81.15;;;29.00;;
35562;SDS011;21665;40.108;18.302;2024-03-23T01:12:11;86.53;;;30.10;;
35562;SDS011;21665;40.108;18.302;2024-03-23T01:14:37;96.63;;;31.35;;
35562;SDS011;21665;40.108;18.302;2024-03-23T01:17:04;85.75;;;28.65;;
35562;SDS011;21665;40.108;18.302;2024-03-23T01:19:30;86.82;;;29.23;;
35562;SDS011;21665;40.108;18.302;2024-03-23T01:21:56;92.88;;;27.58;;
35562;SDS011;21665;40.108;18.302;2024-03-23T01:24:22;95.40;;;28.42;;
35562;SDS011;21665;40.108;18.302;2024-03-23T01:26:49;80.00;;;26.42;;
35562;SDS011;21665;40.108;18.302;2024-03-23T01:29:15;81.88;;;26.20;;
35562;SDS011;21665;40.108;18.302;2024-03-23T01:31:41;74.68;;;25.45;;
35562;SDS011;21665;40.108;18.302;2024-03-23T01:34:07;73.57;;;24.15;;
35562;SDS011;21665;40.108;18.302;2024-03-23T01:36:33;92.32;;;24.70;;
35562;SDS011;21665;40.108;18.302;2024-03-23T01:39:00;86.47;;;22.23;;
35562;SDS011;21665;40.108;18.302;2024-03-23T01:41:26;86.40;;;23.55;;
35562;SDS011;21665;40.108;18.302;2024-03-23T01:43:53;92.10;;;24.17;;
35562;SDS011;21665;40.108;18.302;2024-03-23T01:46:25;84.40;;;23.90;;
35562;SDS011;21665;40.108;18.302;2024-03-23T01:48:52;93.63;;;24.80;;
35562;SDS011;21665;40.108;18.302;2024-03-23T01:51:21;94.00;;;26.67;;
35562;SDS011;21665;40.108;18.302;2024-03-23T01:53:49;80.32;;;23.92;;
35562;SDS011;21665;40.108;18.302;2024-03-23T01:56:17;100.55;;;25.48;;
35562;SDS011;21665;40.108;18.302;2024-03-23T01:58:43;90.18;;;24.30;;
35562;SDS011;21665;40.108;18.302;2024-03-23T02:01:11;85.28;;;24.17;;
35562;SDS011;21665;40.108;18.302;2024-03-23T02:03:37;79.05;;;25.05;;
35562;SDS011;21665;40.108;18.302;2024-03-23T02:06:03;85.50;;;25.38;;
35562;SDS011;21665;40.108;18.302;2024-03-23T02:08:33;80.80;;;24.02;;
35562;SDS011;21665;40.108;18.302;2024-03-23T02:11:00;60.90;;;22.35;;
35562;SDS011;21665;40.108;18.302;2024-03-23T02:13:26;80.63;;;23.83;;
35562;SDS011;21665;40.108;18.302;2024-03-23T02:15:52;67.03;;;22.75;;
35562;SDS011;21665;40.108;18.302;2024-03-23T02:18:19;68.53;;;23.42;;
35562;SDS011;21665;40.108;18.302;2024-03-23T02:20:45;83.60;;;24.08;;
35562;SDS011;21665;40.108;18.302;2024-03-23T02:23:15;77.15;;;23.35;;
35562;SDS011;21665;40.108;18.302;2024-03-23T02:25:41;74.28;;;25.88;;
35562;SDS011;21665;40.108;18.302;2024-03-23T02:28:08;75.40;;;24.63;;
35562;SDS011;21665;40.108;18.302;2024-03-23T02:30:34;98.75;;;24.33;;
35562;SDS011;21665;40.108;18.302;2024-03-23T02:33:01;128.45;;;23.13;;
35562;SDS011;21665;40.108;18.302;2024-03-23T02:35:27;131.05;;;24.92;;
35562;SDS011;21665;40.108;18.302;2024-03-23T02:37:53;122.55;;;23.98;;
35562;SDS011;21665;40.108;18.302;2024-03-23T02:40:22;113.65;;;22.45;;
35562;SDS011;21665;40.108;18.302;2024-03-23T02:42:49;108.30;;;24.20;;
35562;SDS011;21665;40.108;18.302;2024-03-23T02:45:18;86.00;;;23.90;;
35562;SDS011;21665;40.108;18.302;2024-03-23T02:47:45;123.28;;;23.65;;
35562;SDS011;21665;40.108;18.302;2024-03-23T02:50:11;86.53;;;23.35;;
35562;SDS011;21665;40.108;18.302;2024-03-23T02:52:40;80.28;;;23.52;;
35562;SDS011;21665;40.108;18.302;2024-03-23T02:55:06;93.72;;;24.60;;
35562;SDS011;21665;40.108;18.302;2024-03-23T02:57:34;106.10;;;24.05;;
35562;SDS011;21665;40.108;18.302;2024-03-23T03:00:00;83.10;;;24.55;;
35562;SDS011;21665;40.108;18.302;2024-03-23T03:02:26;75.97;;;22.48;;
35562;SDS011;21665;40.108;18.302;2024-03-23T03:04:52;102.95;;;23.75;;
35562;SDS011;21665;40.108;18.302;2024-03-23T03:07:19;90.50;;;23.00;;
35562;SDS011;21665;40.108;18.302;2024-03-23T03:09:45;119.90;;;24.40;;
35562;SDS011;21665;40.108;18.302;2024-03-23T03:12:12;124.63;;;24.63;;
35562;SDS011;21665;40.108;18.302;2024-03-23T03:14:38;178.98;;;28.40;;
35562;SDS011;21665;40.108;18.302;2024-03-23T03:17:05;115.97;;;25.23;;
35562;SDS011;21665;40.108;18.302;2024-03-23T03:19:31;109.15;;;22.83;;
35562;SDS011;21665;40.108;18.302;2024-03-23T03:21:58;106.40;;;25.65;;
35562;SDS011;21665;40.108;18.302;2024-03-23T03:24:25;142.57;;;26.02;;
35562;SDS011;21665;40.108;18.302;2024-03-23T03:26:51;85.47;;;22.63;;
35562;SDS011;21665;40.108;18.302;2024-03-23T03:29:17;92.82;;;22.77;;
35562;SDS011;21665;40.108;18.302;2024-03-23T03:31:44;58.13;;;21.55;;
35562;SDS011;21665;40.108;18.302;2024-03-23T03:34:10;147.48;;;24.25;;
35562;SDS011;21665;40.108;18.302;2024-03-23T03:36:39;119.63;;;24.58;;
35562;SDS011;21665;40.108;18.302;2024-03-23T03:39:06;120.65;;;24.50;;
35562;SDS011;21665;40.108;18.302;2024-03-23T03:41:32;153.82;;;26.45;;
35562;SDS011;21665;40.108;18.302;2024-03-23T03:43:58;122.82;;;22.85;;
35562;SDS011;21665;40.108;18.302;2024-03-23T03:46:28;107.80;;;23.77;;
35562;SDS011;21665;40.108;18.302;2024-03-23T03:48:54;75.47;;;23.83;;
35562;SDS011;21665;40.108;18.302;2024-03-23T03:51:21;98.68;;;24.20;;
35562;SDS011;21665;40.108;18.302;2024-03-23T03:53:47;64.97;;;22.58;;
35562;SDS011;21665;40.108;18.302;2024-03-23T03:56:14;97.47;;;24.15;;
35562;SDS011;21665;40.108;18.302;2024-03-23T03:58:40;104.15;;;24.52;;
35562;SDS011;21665;40.108;18.302;2024-03-23T04:01:06;118.82;;;24.90;;
35562;SDS011;21665;40.108;18.302;2024-03-23T04:03:33;84.50;;;24.50;;
35562;SDS011;21665;40.108;18.302;2024-03-23T04:06:02;107.90;;;26.80;;
35562;SDS011;21665;40.108;18.302;2024-03-23T04:08:29;124.28;;;23.38;;
35562;SDS011;21665;40.108;18.302;2024-03-23T04:10:55;52.33;;;21.38;;
35562;SDS011;21665;40.108;18.302;2024-03-23T04:13:21;100.22;;;22.65;;
35562;SDS011;21665;40.108;18.302;2024-03-23T04:15:47;49.75;;;21.00;;
35562;SDS011;21665;40.108;18.302;2024-03-23T04:18:17;129.50;;;23.50;;
35562;SDS011;21665;40.108;18.302;2024-03-23T04:20:46;59.28;;;22.25;;
35562;SDS011;21665;40.108;18.302;2024-03-23T04:23:14;90.32;;;24.58;;
35562;SDS011;21665;40.108;18.302;2024-03-23T04:25:41;71.55;;;23.50;;
35562;SDS011;21665;40.108;18.302;2024-03-23T04:28:07;69.85;;;23.00;;
35562;SDS011;21665;40.108;18.302;2024-03-23T04:30:33;62.50;;;23.85;;
35562;SDS011;21665;40.108;18.302;2024-03-23T04:33:00;52.78;;;23.63;;
35562;SDS011;21665;40.108;18.302;2024-03-23T04:35:27;48.92;;;23.38;;
35562;SDS011;21665;40.108;18.302;2024-03-23T04:37:53;48.05;;;24.25;;
35562;SDS011;21665;40.108;18.302;2024-03-23T04:40:21;71.15;;;25.15;;
35562;SDS011;21665;40.108;18.302;2024-03-23T04:42:48;64.03;;;24.70;;
35562;SDS011;21665;40.108;18.302;2024-03-23T04:45:14;61.90;;;25.33;;
35562;SDS011;21665;40.108;18.302;2024-03-23T04:47:41;58.92;;;23.50;;
35562;SDS011;21665;40.108;18.302;2024-03-23T04:50:08;39.92;;;21.85;;
35562;SDS011;21665;40.108;18.302;2024-03-23T04:52:38;45.83;;;21.80;;
35562;SDS011;21665;40.108;18.302;2024-03-23T04:55:05;47.47;;;21.92;;
35562;SDS011;21665;40.108;18.302;2024-03-23T04:57:32;49.20;;;21.33;;
35562;SDS011;21665;40.108;18.302;2024-03-23T04:59:58;46.60;;;22.05;;
35562;SDS011;21665;40.108;18.302;2024-03-23T05:02:24;35.35;;;19.58;;
35562;SDS011;21665;40.108;18.302;2024-03-23T05:04:51;83.20;;;22.48;;
35562;SDS011;21665;40.108;18.302;2024-03-23T05:07:17;45.00;;;20.15;;
35562;SDS011;21665;40.108;18.302;2024-03-23T05:09:43;48.10;;;18.35;;
35562;SDS011;21665;40.108;18.302;2024-03-23T05:12:10;47.25;;;20.17;;
35562;SDS011;21665;40.108;18.302;2024-03-23T05:14:36;61.33;;;19.65;;
35562;SDS011;21665;40.108;18.302;2024-03-23T05:17:02;39.67;;;19.02;;
35562;SDS011;21665;40.108;18.302;2024-03-23T05:19:30;49.50;;;20.25;;
35562;SDS011;21665;40.108;18.302;2024-03-23T05:21:56;39.47;;;17.13;;
35562;SDS011;21665;40.108;18.302;2024-03-23T05:24:23;53.80;;;19.27;;
35562;SDS011;21665;40.108;18.302;2024-03-23T05:26:49;34.38;;;17.58;;
35562;SDS011;21665;40.108;18.302;2024-03-23T05:29:15;65.28;;;19.60;;
35562;SDS011;21665;40.108;18.302;2024-03-23T05:31:42;63.00;;;18.02;;
35562;SDS011;21665;40.108;18.302;2024-03-23T05:34:09;45.63;;;16.83;;
35562;SDS011;21665;40.108;18.302;2024-03-23T05:36:35;65.90;;;18.73;;
35562;SDS011;21665;40.108;18.302;2024-03-23T05:39:02;61.75;;;18.58;;
35562;SDS011;21665;40.108;18.302;2024-03-23T05:41:29;74.22;;;17.92;;
35562;SDS011;21665;40.108;18.302;2024-03-23T05:43:55;70.55;;;17.70;;
35562;SDS011;21665;40.108;18.302;2024-03-23T05:46:21;57.80;;;19.02;;
35562;SDS011;21665;40.108;18.302;2024-03-23T05:48:48;65.78;;;16.48;;
35562;SDS011;21665;40.108;18.302;2024-03-23T05:51:25;50.20;;;16.17;;
35562;SDS011;21665;40.108;18.302;2024-03-23T05:53:52;100.32;;;18.38;;
35562;SDS011;21665;40.108;18.302;2024-03-23T05:56:19;50.35;;;16.08;;
35562;SDS011;21665;40.108;18.302;2024-03-23T05:58:46;92.22;;;18.23;;
35562;SDS011;21665;40.108;18.302;2024-03-23T06:01:12;57.22;;;15.38;;
35562;SDS011;21665;40.108;18.302;2024-03-23T06:03:39;96.35;;;15.70;;
35562;SDS011;21665;40.108;18.302;2024-03-23T06:06:05;74.18;;;14.88;;
35562;SDS011;21665;40.108;18.302;2024-03-23T06:08:37;54.83;;;13.73;;
35562;SDS011;21665;40.108;18.302;2024-03-23T06:11:07;67.75;;;14.65;;
35562;SDS011;21665;40.108;18.302;2024-03-23T06:13:34;45.20;;;12.77;;
35562;SDS011;21665;40.108;18.302;2024-03-23T06:16:01;78.45;;;12.85;;
35562;SDS011;21665;40.108;18.302;2024-03-23T06:18:27;50.30;;;12.45;;
35562;SDS011;21665;40.108;18.302;2024-03-23T06:20:54;71.85;;;14.32;;
35562;SDS011;21665;40.108;18.302;2024-03-23T06:23:20;90.18;;;14.30;;
35562;SDS011;21665;40.108;18.302;2024-03-23T06:25:46;105.35;;;15.70;;
35562;SDS011;21665;40.108;18.302;2024-03-23T06:28:13;61.47;;;15.45;;
35562;SDS011;21665;40.108;18.302;2024-03-23T06:30:40;60.92;;;15.43;;
35562;SDS011;21665;40.108;18.302;2024-03-23T06:33:06;70.80;;;16.20;;
35562;SDS011;21665;40.108;18.302;2024-03-23T06:35:32;53.75;;;14.18;;
35562;SDS011;21665;40.108;18.302;2024-03-23T06:37:59;29.25;;;11.50;;
35562;SDS011;21665;40.108;18.302;2024-03-23T06:40:25;107.13;;;13.27;;
35562;SDS011;21665;40.108;18.302;2024-03-23T06:42:52;57.35;;;11.80;;
35562;SDS011;21665;40.108;18.302;2024-03-23T06:45:18;27.50;;;11.35;;
35562;SDS011;21665;40.108;18.302;2024-03-23T06:47:49;36.30;;;11.20;;
35562;SDS011;21665;40.108;18.302;2024-03-23T06:50:17;144.30;;;15.70;;
35562;SDS011;21665;40.108;18.302;2024-03-23T06:52:43;27.33;;;11.48;;
35562;SDS011;21665;40.108;18.302;2024-03-23T06:55:09;21.20;;;10.43;;
35562;SDS011;21665;40.108;18.302;2024-03-23T06:57:36;28.77;;;10.95;;
35562;SDS011;21665;40.108;18.302;2024-03-23T07:00:02;27.63;;;11.75;;
35562;SDS011;21665;40.108;18.302;2024-03-23T07:02:29;24.70;;;12.65;;
35562;SDS011;21665;40.108;18.302;2024-03-23T07:04:58;19.13;;;13.38;;
35562;SDS011;21665;40.108;18.302;2024-03-23T07:07:25;17.65;;;13.80;;
35562;SDS011;21665;40.108;18.302;2024-03-23T07:09:53;28.00;;;16.02;;
35562;SDS011;21665;40.108;18.302;2024-03-23T07:12:19;30.77;;;17.23;;
35562;SDS011;21665;40.108;18.302;2024-03-23T07:14:46;43.83;;;20.52;;
35562;SDS011;21665;40.108;18.302;2024-03-23T07:17:12;32.63;;;21.63;;
35562;SDS011;21665;40.108;18.302;2024-03-23T07:19:38;34.83;;;22.15;;
35562;SDS011;21665;40.108;18.302;2024-03-23T07:22:05;21.48;;;17.58;;
35562;SDS011;21665;40.108;18.302;2024-03-23T07:24:31;28.80;;;19.63;;
35562;SDS011;21665;40.108;18.302;2024-03-23T07:26:58;21.00;;;18.40;;
35562;SDS011;21665;40.108;18.302;2024-03-23T07:29:24;21.20;;;18.92;;
35562;SDS011;21665;40.108;18.302;2024-03-23T07:31:51;24.05;;;19.88;;
35562;SDS011;21665;40.108;18.302;2024-03-23T07:34:17;24.95;;;20.58;;
35562;SDS011;21665;40.108;18.302;2024-03-23T07:36:43;23.17;;;20.95;;
35562;SDS011;21665;40.108;18.302;2024-03-23T07:39:09;24.88;;;22.63;;
35562;SDS011;21665;40.108;18.302;2024-03-23T07:41:40;26.15;;;23.90;;
35562;SDS011;21665;40.108;18.302;2024-03-23T07:44:11;24.83;;;22.58;;
35562;SDS011;21665;40.108;18.302;2024-03-23T07:46:37;26.20;;;23.95;;
35562;SDS011;21665;40.108;18.302;2024-03-23T07:49:06;27.63;;;24.83;;
35562;SDS011;21665;40.108;18.302;2024-03-23T07:51:33;28.42;;;25.90;;
35562;SDS011;21665;40.108;18.302;2024-03-23T07:54:00;30.23;;;27.40;;
35562;SDS011;21665;40.108;18.302;2024-03-23T07:56:27;30.83;;;28.33;;
35562;SDS011;21665;40.108;18.302;2024-03-23T07:58:53;30.67;;;28.00;;
35562;SDS011;21665;40.108;18.302;2024-03-23T08:01:20;28.98;;;26.70;;
35562;SDS011;21665;40.108;18.302;2024-03-23T08:03:46;28.33;;;26.10;;
35562;SDS011;21665;40.108;18.302;2024-03-23T08:06:16;28.83;;;26.38;;
35562;SDS011;21665;40.108;18.302;2024-03-23T08:08:46;30.08;;;27.25;;
35562;SDS011;21665;40.108;18.302;2024-03-23T08:11:14;28.75;;;26.45;;
35562;SDS011;21665;40.108;18.302;2024-03-23T08:13:42;28.95;;;26.73;;
35562;SDS011;21665;40.108;18.302;2024-03-23T08:16:10;28.83;;;26.52;;
35562;SDS011;21665;40.108;18.302;2024-03-23T08:18:37;27.70;;;25.58;;
35562;SDS011;21665;40.108;18.302;2024-03-23T08:21:06;28.40;;;26.40;;
35562;SDS011;21665;40.108;18.302;2024-03-23T08:23:33;30.60;;;28.10;;
35562;SDS011;21665;40.108;18.302;2024-03-23T08:26:10;31.23;;;28.58;;
35562;SDS011;21665;40.108;18.302;2024-03-23T08:28:39;31.70;;;29.40;;
35562;SDS011;21665;40.108;18.302;2024-03-23T08:31:22;30.73;;;28.40;;
35562;SDS011;21665;40.108;18.302;2024-03-23T08:33:53;31.75;;;29.15;;
35562;SDS011;21665;40.108;18.302;2024-03-23T08:36:24;31.08;;;28.75;;
35562;SDS011;21665;40.108;18.302;2024-03-23T08:39:01;31.67;;;29.30;;
35562;SDS011;21665;40.108;18.302;2024-03-23T08:41:29;32.28;;;29.63;;
35562;SDS011;21665;40.108;18.302;2024-03-23T08:43:56;31.95;;;29.60;;
35562;SDS011;21665;40.108;18.302;2024-03-23T08:46:22;32.75;;;30.45;;
35562;SDS011;21665;40.108;18.302;2024-03-23T08:48:49;32.53;;;30.05;;
35562;SDS011;21665;40.108;18.302;2024-03-23T08:51:18;32.92;;;30.35;;
35562;SDS011;21665;40.108;18.302;2024-03-23T08:53:44;33.97;;;31.40;;
35562;SDS011;21665;40.108;18.302;2024-03-23T08:56:12;33.08;;;30.77;;
35562;SDS011;21665;40.108;18.302;2024-03-23T08:58:38;33.22;;;30.58;;
35562;SDS011;21665;40.108;18.302;2024-03-23T09:03:36;32.40;;;30.08;;
35562;SDS011;21665;40.108;18.302;2024-03-23T09:06:12;33.47;;;31.08;;
35562;SDS011;21665;40.108;18.302;2024-03-23T09:08:40;33.10;;;30.70;;
35562;SDS011;21665;40.108;18.302;2024-03-23T09:11:07;32.72;;;29.95;;
35562;SDS011;21665;40.108;18.302;2024-03-23T09:13:35;32.55;;;29.98;;
35562;SDS011;21665;40.108;18.302;2024-03-23T09:16:06;31.40;;;29.10;;
35562;SDS011;21665;40.108;18.302;2024-03-23T09:18:35;31.52;;;29.08;;
35562;SDS011;21665;40.108;18.302;2024-03-23T09:21:03;32.85;;;30.13;;
35562;SDS011;21665;40.108;18.302;2024-03-23T09:23:30;32.72;;;30.20;;
35562;SDS011;21665;40.108;18.302;2024-03-23T09:25:56;31.75;;;29.33;;
35562;SDS011;21665;40.108;18.302;2024-03-23T09:28:22;32.25;;;29.85;;
35562;SDS011;21665;40.108;18.302;2024-03-23T09:30:49;32.45;;;29.95;;
35562;SDS011;21665;40.108;18.302;2024-03-23T09:33:15;32.65;;;30.20;;
35562;SDS011;21665;40.108;18.302;2024-03-23T09:35:43;33.30;;;30.77;;
35562;SDS011;21665;40.108;18.302;2024-03-23T09:38:13;32.38;;;30.20;;
35562;SDS011;21665;40.108;18.302;2024-03-23T09:40:42;33.50;;;31.15;;
35562;SDS011;21665;40.108;18.302;2024-03-23T09:43:09;33.22;;;30.63;;
35562;SDS011;21665;40.108;18.302;2024-03-23T09:45:39;32.88;;;30.58;;
35562;SDS011;21665;40.108;18.302;2024-03-23T09:48:10;31.38;;;29.00;;
35562;SDS011;21665;40.108;18.302;2024-03-23T09:50:40;30.35;;;28.30;;
35562;SDS011;21665;40.108;18.302;2024-03-23T09:53:08;30.25;;;28.00;;
35562;SDS011;21665;40.108;18.302;2024-03-23T09:55:45;30.45;;;28.30;;
35562;SDS011;21665;40.108;18.302;2024-03-23T09:58:12;31.10;;;28.80;;
35562;SDS011;21665;40.108;18.302;2024-03-23T10:00:41;31.05;;;28.77;;
35562;SDS011;21665;40.108;18.302;2024-03-23T10:03:08;31.77;;;28.83;;
35562;SDS011;21665;40.108;18.302;2024-03-23T10:05:37;30.52;;;28.27;;
35562;SDS011;21665;40.108;18.302;2024-03-23T10:08:17;30.88;;;28.38;;
35562;SDS011;21665;40.108;18.302;2024-03-23T10:10:45;31.48;;;29.27;;
35562;SDS011;21665;40.108;18.302;2024-03-23T10:13:33;32.10;;;29.50;;
35562;SDS011;21665;40.108;18.302;2024-03-23T10:15:59;31.77;;;29.38;;
35562;SDS011;21665;40.108;18.302;2024-03-23T10:18:26;31.60;;;29.20;;
35562;SDS011;21665;40.108;18.302;2024-03-23T10:23:37;31.90;;;29.48;;
35562;SDS011;21665;40.108;18.302;2024-03-23T10:28:56;30.75;;;28.27;;
35562;SDS011;21665;40.108;18.302;2024-03-23T10:31:28;30.60;;;28.30;;
35562;SDS011;21665;40.108;18.302;2024-03-23T10:33:55;30.30;;;28.00;;
35562;SDS011;21665;40.108;18.302;2024-03-23T10:36:22;28.70;;;26.77;;
35562;SDS011;21665;40.108;18.302;2024-03-23T10:38:50;30.83;;;27.77;;
35562;SDS011;21665;40.108;18.302;2024-03-23T10:41:17;31.08;;;28.52;;
35562;SDS011;21665;40.108;18.302;2024-03-23T10:43:45;30.52;;;28.15;;
35562;SDS011;21665;40.108;18.302;2024-03-23T10:46:12;30.63;;;28.10;;
35562;SDS011;21665;40.108;18.302;2024-03-23T10:48:39;28.90;;;26.83;;
35562;SDS011;21665;40.108;18.302;2024-03-23T10:51:09;30.33;;;28.08;;
35562;SDS011;21665;40.108;18.302;2024-03-23T10:53:36;29.40;;;27.40;;
35562;SDS011;21665;40.108;18.302;2024-03-23T10:56:04;28.48;;;26.48;;
35562;SDS011;21665;40.108;18.302;2024-03-23T10:58:38;29.17;;;26.88;;
35562;SDS011;21665;40.108;18.302;2024-03-23T11:01:06;28.23;;;26.13;;
35562;SDS011;21665;40.108;18.302;2024-03-23T11:03:38;29.80;;;27.40;;
35562;SDS011;21665;40.108;18.302;2024-03-23T11:06:06;32.60;;;30.05;;
35562;SDS011;21665;40.108;18.302;2024-03-23T11:08:38;31.75;;;29.08;;
35562;SDS011;21665;40.108;18.302;2024-03-23T11:13:47;34.17;;;31.00;;
35562;SDS011;21665;40.108;18.302;2024-03-23T11:16:15;34.22;;;31.05;;
35562;SDS011;21665;40.108;18.302;2024-03-23T11:18:47;36.95;;;33.70;;
35562;SDS011;21665;40.108;18.302;2024-03-23T11:21:58;33.25;;;30.65;;
35562;SDS011;21665;40.108;18.302;2024-03-23T11:24:26;33.10;;;30.60;;
35562;SDS011;21665;40.108;18.302;2024-03-23T11:26:52;32.95;;;30.13;;
35562;SDS011;21665;40.108;18.302;2024-03-23T11:29:18;32.30;;;29.85;;
35562;SDS011;21665;40.108;18.302;2024-03-23T11:31:48;31.73;;;29.45;;
35562;SDS011;21665;40.108;18.302;2024-03-23T11:34:16;32.75;;;30.02;;
35562;SDS011;21665;40.108;18.302;2024-03-23T11:36:43;31.42;;;29.10;;
35562;SDS011;21665;40.108;18.302;2024-03-23T11:39:13;31.40;;;28.88;;
35562;SDS011;21665;40.108;18.302;2024-03-23T11:42:15;32.55;;;29.83;;
35562;SDS011;21665;40.108;18.302;2024-03-23T11:44:35;32.22;;;29.98;;
35562;SDS011;21665;40.108;18.302;2024-03-23T11:47:07;31.92;;;29.17;;
35562;SDS011;21665;40.108;18.302;2024-03-23T11:49:34;31.60;;;29.30;;
35562;SDS011;21665;40.108;18.302;2024-03-23T11:52:08;31.60;;;29.05;;
35562;SDS011;21665;40.108;18.302;2024-03-23T11:54:34;31.92;;;29.67;;
35562;SDS011;21665;40.108;18.302;2024-03-23T11:57:02;32.28;;;29.98;;
35562;SDS011;21665;40.108;18.302;2024-03-23T11:59:31;32.03;;;29.83;;
35562;SDS011;21665;40.108;18.302;2024-03-23T12:04:34;32.58;;;30.35;;
35562;SDS011;21665;40.108;18.302;2024-03-23T12:07:10;33.50;;;30.92;;
35562;SDS011;21665;40.108;18.302;2024-03-23T12:09:38;32.78;;;30.65;;
35562;SDS011;21665;40.108;18.302;2024-03-23T12:12:10;32.58;;;30.35;;
35562;SDS011;21665;40.108;18.302;2024-03-23T12:14:44;32.92;;;30.63;;
35562;SDS011;21665;40.108;18.302;2024-03-23T12:17:27;33.55;;;31.00;;
35562;SDS011;21665;40.108;18.302;2024-03-23T12:19:54;33.42;;;31.13;;
35562;SDS011;21665;40.108;18.302;2024-03-23T12:22:20;32.70;;;30.50;;
35562;SDS011;21665;40.108;18.302;2024-03-23T12:24:48;33.28;;;30.85;;
35562;SDS011;21665;40.108;18.302;2024-03-23T12:27:14;33.47;;;31.02;;
35562;SDS011;21665;40.108;18.302;2024-03-23T12:29:41;32.78;;;30.35;;
35562;SDS011;21665;40.108;18.302;2024-03-23T12:32:09;32.38;;;30.10;;
35562;SDS011;21665;40.108;18.302;2024-03-23T12:34:35;31.17;;;28.80;;
35562;SDS011;21665;40.108;18.302;2024-03-23T12:37:02;30.38;;;28.05;;
35562;SDS011;21665;40.108;18.302;2024-03-23T12:39:28;30.95;;;28.65;;
35562;SDS011;21665;40.108;18.302;2024-03-23T12:41:55;27.98;;;25.88;;
35562;SDS011;21665;40.108;18.302;2024-03-23T12:44:21;25.65;;;23.65;;
35562;SDS011;21665;40.108;18.302;2024-03-23T12:46:48;24.80;;;22.20;;
35562;SDS011;21665;40.108;18.302;2024-03-23T12:49:14;23.27;;;20.95;;
35562;SDS011;21665;40.108;18.302;2024-03-23T12:51:47;22.35;;;20.05;;
35562;SDS011;21665;40.108;18.302;2024-03-23T12:54:33;21.77;;;19.92;;
35562;SDS011;21665;40.108;18.302;2024-03-23T12:57:00;21.60;;;20.00;;
35562;SDS011;21665;40.108;18.302;2024-03-23T12:59:27;23.17;;;21.30;;
35562;SDS011;21665;40.108;18.302;2024-03-23T13:01:54;23.60;;;21.58;;
35562;SDS011;21665;40.108;18.302;2024-03-23T13:04:20;23.10;;;21.10;;
35562;SDS011;21665;40.108;18.302;2024-03-23T13:06:47;22.50;;;20.90;;
35562;SDS011;21665;40.108;18.302;2024-03-23T13:09:14;23.50;;;21.10;;
35562;SDS011;21665;40.108;18.302;2024-03-23T13:11:40;24.15;;;22.35;;
35562;SDS011;21665;40.108;18.302;2024-03-23T13:14:07;25.50;;;23.35;;
35562;SDS011;21665;40.108;18.302;2024-03-23T13:16:33;24.55;;;22.30;;
35562;SDS011;21665;40.108;18.302;2024-03-23T13:19:00;24.30;;;22.58;;
35562;SDS011;21665;40.108;18.302;2024-03-23T13:21:26;25.48;;;23.02;;
35562;SDS011;21665;40.108;18.302;2024-03-23T13:23:53;25.27;;;23.27;;
35562;SDS011;21665;40.108;18.302;2024-03-23T13:26:20;26.65;;;24.80;;
35562;SDS011;21665;40.108;18.302;2024-03-23T13:28:46;26.13;;;24.42;;
35562;SDS011;21665;40.108;18.302;2024-03-23T13:31:13;29.02;;;26.92;;
35562;SDS011;21665;40.108;18.302;2024-03-23T13:33:39;29.48;;;27.27;;
35562;SDS011;21665;40.108;18.302;2024-03-23T13:36:08;29.50;;;27.10;;
35562;SDS011;21665;40.108;18.302;2024-03-23T13:38:35;29.33;;;27.05;;
35562;SDS011;21665;40.108;18.302;2024-03-23T13:41:04;32.17;;;29.63;;
35562;SDS011;21665;40.108;18.302;2024-03-23T13:43:35;32.03;;;29.52;;
35562;SDS011;21665;40.108;18.302;2024-03-23T13:46:01;31.40;;;28.90;;
35562;SDS011;21665;40.108;18.302;2024-03-23T13:48:27;31.30;;;28.88;;
35562;SDS011;21665;40.108;18.302;2024-03-23T13:50:58;31.38;;;29.02;;
35562;SDS011;21665;40.108;18.302;2024-03-23T13:53:29;31.65;;;29.33;;
35562;SDS011;21665;40.108;18.302;2024-03-23T13:55:56;32.75;;;30.23;;
35562;SDS011;21665;40.108;18.302;2024-03-23T13:58:22;32.97;;;30.33;;
35562;SDS011;21665;40.108;18.302;2024-03-23T14:00:52;32.58;;;30.27;;
35562;SDS011;21665;40.108;18.302;2024-03-23T14:03:18;32.28;;;29.88;;
35562;SDS011;21665;40.108;18.302;2024-03-23T14:05:48;32.25;;;30.13;;
35562;SDS011;21665;40.108;18.302;2024-03-23T14:08:15;33.50;;;31.20;;
35562;SDS011;21665;40.108;18.302;2024-03-23T14:10:42;34.17;;;31.75;;
35562;SDS011;21665;40.108;18.302;2024-03-23T14:13:10;33.55;;;31.30;;
35562;SDS011;21665;40.108;18.302;2024-03-23T14:15:36;34.00;;;31.50;;
35562;SDS011;21665;40.108;18.302;2024-03-23T14:18:03;33.40;;;30.98;;
35562;SDS011;21665;40.108;18.302;2024-03-23T14:20:30;33.58;;;31.15;;
35562;SDS011;21665;40.108;18.302;2024-03-23T14:22:56;33.92;;;31.52;;
35562;SDS011;21665;40.108;18.302;2024-03-23T14:25:23;34.10;;;31.67;;
35562;SDS011;21665;40.108;18.302;2024-03-23T14:27:52;34.00;;;31.25;;
35562;SDS011;21665;40.108;18.302;2024-03-23T14:30:19;33.65;;;31.13;;
35562;SDS011;21665;40.108;18.302;2024-03-23T14:32:45;33.75;;;31.17;;
35562;SDS011;21665;40.108;18.302;2024-03-23T14:35:12;33.08;;;30.67;;
35562;SDS011;21665;40.108;18.302;2024-03-23T14:37:38;33.50;;;31.08;;
35562;SDS011;21665;40.108;18.302;2024-03-23T14:40:07;34.55;;;32.05;;
35562;SDS011;21665;40.108;18.302;2024-03-23T14:42:37;34.22;;;31.70;;
35562;SDS011;21665;40.108;18.302;2024-03-23T14:45:04;34.42;;;31.85;;
35562;SDS011;21665;40.108;18.302;2024-03-23T14:47:31;34.33;;;31.55;;
35562;SDS011;21665;40.108;18.302;2024-03-23T14:49:57;34.10;;;31.77;;
35562;SDS011;21665;40.108;18.302;2024-03-23T14:52:24;35.30;;;32.60;;
35562;SDS011;21665;40.108;18.302;2024-03-23T14:54:50;33.83;;;31.40;;
35562;SDS011;21665;40.108;18.302;2024-03-23T14:57:16;33.70;;;31.30;;
35562;SDS011;21665;40.108;18.302;2024-03-23T14:59:44;34.60;;;31.83;;
35562;SDS011;21665;40.108;18.302;2024-03-23T15:02:10;34.45;;;31.73;;
35562;SDS011;21665;40.108;18.302;2024-03-23T15:04:38;34.25;;;31.63;;
35562;SDS011;21665;40.108;18.302;2024-03-23T15:07:07;32.78;;;30.63;;
35562;SDS011;21665;40.108;18.302;2024-03-23T15:09:33;32.47;;;30.25;;
35562;SDS011;21665;40.108;18.302;2024-03-23T15:12:00;34.33;;;31.35;;
35562;SDS011;21665;40.108;18.302;2024-03-23T15:14:26;33.55;;;31.15;;
35562;SDS011;21665;40.108;18.302;2024-03-23T15:16:52;34.50;;;31.65;;